createdAt,value
2022-09-06T00:00:31.555Z,99.90
2022-09-06T00:03:01.139Z,99.90
2022-09-06T00:05:32.935Z,99.90
2022-09-06T00:08:02.695Z,99.90
2022-09-06T00:10:32.022Z,99.90
2022-09-06T00:13:03.458Z,99.90
2022-09-06T00:15:32.590Z,99.90
2022-09-06T00:18:01.697Z,99.90
2022-09-06T00:20:34.726Z,99.90
2022-09-06T00:23:05.681Z,99.90
2022-09-06T00:25:35.169Z,99.90
2022-09-06T00:28:06.436Z,99.90
2022-09-06T00:30:35.370Z,99.90
2022-09-06T00:33:03.992Z,99.90
2022-09-06T00:35:34.279Z,99.90
2022-09-06T00:38:03.209Z,99.90
2022-09-06T00:40:33.789Z,99.90
2022-09-06T00:43:02.484Z,99.90
2022-09-06T00:45:32.032Z,99.90
2022-09-06T00:48:02.853Z,99.90
2022-09-06T00:50:32.974Z,99.90
2022-09-06T00:53:01.673Z,99.90
2022-09-06T00:55:30.450Z,99.90
2022-09-06T00:57:59.400Z,99.90
2022-09-06T01:00:28.163Z,99.90
2022-09-06T01:02:57.051Z,99.90
2022-09-06T01:05:35.016Z,99.90
2022-09-06T01:08:11.492Z,99.90
2022-09-06T01:11:13.087Z,99.90
2022-09-06T01:13:52.360Z,99.90
2022-09-06T01:16:30.417Z,99.90
2022-09-06T01:19:27.351Z,99.90
2022-09-06T01:22:10.450Z,99.90
2022-09-06T01:25:01.183Z,99.90
2022-09-06T01:27:55.503Z,99.90
2022-09-06T01:30:25.070Z,99.90
2022-09-06T01:32:58.355Z,99.90
2022-09-06T01:35:34.799Z,99.90
2022-09-06T01:38:04.341Z,99.90
2022-09-06T01:40:36.401Z,99.90
2022-09-06T01:43:11.111Z,99.90
2022-09-06T01:45:47.422Z,99.90
2022-09-06T01:48:23.924Z,99.90
2022-09-06T01:51:03.920Z,99.90
2022-09-06T01:53:53.137Z,99.90
2022-09-06T01:56:38.455Z,99.90
2022-09-06T01:59:25.052Z,99.90
2022-09-06T02:02:04.733Z,99.90
2022-09-06T02:04:41.376Z,99.90
2022-09-06T02:07:16.264Z,99.90
2022-09-06T02:09:49.594Z,99.90
2022-09-06T02:12:21.819Z,99.90
2022-09-06T02:14:57.941Z,99.90
2022-09-06T02:17:31.529Z,99.90
2022-09-06T02:20:04.557Z,99.90
2022-09-06T02:22:37.359Z,99.90
2022-09-06T02:25:10.196Z,99.90
2022-09-06T02:27:38.937Z,99.90
2022-09-06T02:30:10.162Z,99.90
2022-09-06T02:32:41.770Z,99.90
2022-09-06T02:35:14.549Z,99.90
2022-09-06T02:37:44.085Z,99.90
2022-09-06T02:40:13.518Z,99.90
2022-09-06T02:42:42.399Z,99.90
2022-09-06T02:45:12.783Z,99.90
2022-09-06T02:47:41.365Z,99.90
2022-09-06T02:50:10.371Z,99.90
2022-09-06T02:52:39.080Z,99.90
2022-09-06T02:55:08.969Z,99.90
2022-09-06T02:57:37.493Z,99.90
2022-09-06T03:00:06.770Z,99.90
2022-09-06T03:02:36.773Z,99.90
2022-09-06T03:05:05.931Z,99.90
2022-09-06T03:07:34.561Z,99.90
2022-09-06T03:10:03.238Z,99.90
2022-09-06T03:12:31.918Z,99.90
2022-09-06T03:15:00.537Z,99.90
2022-09-06T03:17:29.192Z,99.90
2022-09-06T03:19:59.182Z,99.90
2022-09-06T03:22:27.792Z,99.90
2022-09-06T03:24:56.634Z,99.90
2022-09-06T03:27:25.830Z,99.90
2022-09-06T03:29:54.738Z,99.90
2022-09-06T03:32:23.416Z,99.90
2022-09-06T03:34:52.019Z,99.90
2022-09-06T03:37:22.176Z,99.90
2022-09-06T03:39:50.788Z,99.90
2022-09-06T03:42:19.459Z,99.90
2022-09-06T03:44:48.049Z,99.90
2022-09-06T03:47:19.634Z,99.90
2022-09-06T03:49:48.728Z,99.90
2022-09-06T03:52:17.546Z,99.90
2022-09-06T03:54:47.488Z,99.90
2022-09-06T03:57:16.069Z,99.90
2022-09-06T03:59:44.601Z,99.90
2022-09-06T04:02:13.421Z,99.90
2022-09-06T04:04:42.105Z,99.90
2022-09-06T04:07:10.736Z,99.90
2022-09-06T04:09:39.545Z,99.90
2022-09-06T04:12:09.698Z,99.90
2022-09-06T04:14:38.276Z,99.90
2022-09-06T04:17:06.919Z,99.90
2022-09-06T04:19:35.608Z,99.90
2022-09-06T04:22:04.174Z,99.90
2022-09-06T04:24:32.727Z,99.90
2022-09-06T04:27:01.367Z,99.90
2022-09-06T04:29:31.323Z,99.90
2022-09-06T04:32:00.025Z,99.90
2022-09-06T04:34:28.685Z,99.90
2022-09-06T04:36:57.249Z,99.90
2022-09-06T04:39:25.928Z,99.90
2022-09-06T04:41:54.538Z,99.90
2022-09-06T04:44:23.055Z,99.90
2022-09-06T04:47:09.332Z,99.90
2022-09-06T04:49:38.241Z,99.90
2022-09-06T04:52:06.869Z,99.90
2022-09-06T04:54:35.663Z,99.90
2022-09-06T04:57:04.877Z,99.90
2022-09-06T04:59:33.880Z,99.90
2022-09-06T05:02:03.935Z,99.90
2022-09-06T05:04:32.674Z,99.90
2022-09-06T05:07:03.169Z,99.90
2022-09-06T05:09:32.125Z,99.90
2022-09-06T05:12:00.916Z,99.90
2022-09-06T05:14:30.338Z,99.90
2022-09-06T05:16:59.145Z,99.90
2022-09-06T05:19:29.144Z,99.90
2022-09-06T05:21:57.811Z,99.90
2022-09-06T05:24:26.565Z,99.90
2022-09-06T05:26:55.176Z,99.90
2022-09-06T05:29:26.538Z,99.90
2022-09-06T05:31:58.639Z,99.90
2022-09-06T05:34:28.652Z,99.90
2022-09-06T05:36:57.192Z,99.90
2022-09-06T05:39:25.863Z,99.90
2022-09-06T05:41:54.441Z,99.90
2022-09-06T05:44:23.037Z,99.90
2022-09-06T05:46:51.728Z,99.90
2022-09-06T05:49:20.290Z,99.90
2022-09-06T05:51:53.312Z,99.90
2022-09-06T05:54:21.859Z,99.90
2022-09-06T05:56:50.504Z,99.90
2022-09-06T05:59:19.066Z,99.90
2022-09-06T06:01:52.404Z,99.90
2022-09-06T06:04:22.421Z,99.90
2022-09-06T06:06:52.558Z,99.90
2022-09-06T06:09:21.198Z,99.90
2022-09-06T06:11:49.837Z,99.90
2022-09-06T06:14:18.586Z,99.90
2022-09-06T06:16:47.185Z,99.90
2022-09-06T06:19:15.765Z,99.90
2022-09-06T06:21:44.795Z,99.90
2022-09-06T06:24:14.912Z,99.90
2022-09-06T06:26:43.469Z,99.90
2022-09-06T06:29:12.027Z,99.90
2022-09-06T06:31:41.152Z,99.90
2022-09-06T06:34:10.029Z,99.90
2022-09-06T06:36:38.987Z,99.90
2022-09-06T06:39:09.437Z,99.90
2022-09-06T06:41:39.387Z,99.90
2022-09-06T06:44:07.957Z,99.90
2022-09-06T06:46:38.517Z,99.90
2022-09-06T06:49:07.430Z,99.90
2022-09-06T06:51:37.882Z,99.90
2022-09-06T06:54:07.046Z,99.90
2022-09-06T06:56:37.892Z,99.90
2022-09-06T06:59:08.577Z,99.90
2022-09-06T07:01:38.244Z,99.90
2022-09-06T07:04:07.272Z,99.90
2022-09-06T07:12:25.983Z,99.90
2022-09-06T07:14:55.885Z,99.90
2022-09-06T07:17:24.511Z,99.90
2022-09-06T07:22:42.206Z,99.90
2022-09-06T07:25:14.457Z,99.90
2022-09-06T07:27:47.822Z,99.90
2022-09-06T07:30:19.850Z,99.90
2022-09-06T07:32:48.684Z,99.90
2022-09-06T07:35:17.403Z,99.90
2022-09-06T07:37:53.594Z,99.90
2022-09-06T07:40:22.172Z,99.90
2022-09-06T07:42:50.805Z,99.90
2022-09-06T07:45:20.833Z,99.90
2022-09-06T07:53:16.725Z,99.90
2022-09-06T07:55:48.293Z,99.90
2022-09-06T07:58:16.890Z,99.90
2022-09-06T08:00:46.842Z,99.90
2022-09-06T08:03:15.491Z,99.90
2022-09-06T08:11:22.103Z,99.90
2022-09-06T08:13:51.983Z,99.90
2022-09-06T08:16:22.464Z,99.90
2022-09-06T08:18:52.691Z,99.90
2022-09-06T08:21:23.663Z,99.90
2022-09-06T08:23:53.830Z,99.90
2022-09-06T08:26:24.037Z,99.90
2022-09-06T08:28:56.056Z,99.90
2022-09-06T08:31:26.250Z,99.90
2022-09-06T08:33:55.790Z,99.90
2022-09-06T08:36:27.198Z,99.90
2022-09-06T08:38:56.022Z,99.90
2022-09-06T08:41:32.170Z,99.90
2022-09-06T08:47:01.295Z,99.90
2022-09-06T08:49:32.941Z,99.90
2022-09-06T08:52:27.205Z,99.90
2022-09-06T08:55:05.332Z,99.90
2022-09-06T08:57:46.734Z,99.90
2022-09-06T09:00:15.766Z,99.90
2022-09-06T09:02:47.983Z,99.90
2022-09-06T09:05:25.844Z,99.90
2022-09-06T09:08:03.919Z,99.90
2022-09-06T09:10:41.518Z,99.90
2022-09-06T09:13:19.891Z,99.90
2022-09-06T09:15:48.563Z,99.90
2022-09-06T09:18:25.121Z,99.90
2022-09-06T09:20:54.037Z,99.90
2022-09-06T09:23:22.740Z,99.90
2022-09-06T09:25:53.740Z,99.90
2022-09-06T09:28:25.904Z,99.90
2022-09-06T09:30:56.449Z,99.90
2022-09-06T09:33:29.725Z,99.90
2022-09-06T09:36:00.529Z,99.90
2022-09-06T09:38:31.360Z,99.90
2022-09-06T09:41:03.069Z,99.90
2022-09-06T09:43:33.291Z,99.90
2022-09-06T09:46:17.652Z,99.90
2022-09-06T09:49:09.890Z,99.90
2022-09-06T09:51:40.222Z,99.90
2022-09-06T09:54:10.751Z,99.90
2022-09-06T09:56:44.681Z,99.90
2022-09-06T09:59:23.080Z,99.90
2022-09-06T10:01:55.565Z,99.90
2022-09-06T10:04:47.206Z,99.90
2022-09-06T10:07:17.877Z,99.90
2022-09-06T10:09:48.846Z,99.90
2022-09-06T10:12:20.043Z,99.90
2022-09-06T10:14:50.047Z,99.90
2022-09-06T10:17:29.879Z,99.90
2022-09-06T10:20:03.450Z,99.90
2022-09-06T10:22:34.678Z,99.90
2022-09-06T10:25:35.692Z,99.90
2022-09-06T10:28:39.006Z,99.90
2022-09-06T10:31:50.219Z,99.90
2022-09-06T10:34:56.841Z,99.90
2022-09-06T10:37:39.673Z,99.90
2022-09-06T10:40:10.785Z,99.90
2022-09-06T10:42:47.145Z,99.90
2022-09-06T10:45:29.639Z,99.90
2022-09-06T10:48:02.725Z,99.90
2022-09-06T10:50:43.983Z,99.90
2022-09-06T10:53:19.982Z,99.90
2022-09-06T10:55:54.120Z,99.90
2022-09-06T10:58:28.071Z,99.90
2022-09-06T11:00:57.121Z,99.90
2022-09-06T11:06:25.434Z,99.90
2022-09-06T11:09:06.328Z,99.90
2022-09-06T11:11:42.417Z,99.90
2022-09-06T11:14:13.938Z,99.90
2022-09-06T11:16:49.366Z,99.90
2022-09-06T11:19:23.783Z,99.90
2022-09-06T11:22:08.612Z,99.90
2022-09-06T11:24:54.040Z,99.40
2022-09-06T11:27:33.917Z,99.00
2022-09-06T11:30:06.068Z,98.10
2022-09-06T11:32:39.005Z,97.80
2022-09-06T11:35:10.135Z,96.90
2022-09-06T11:37:42.985Z,96.40
2022-09-06T11:40:26.829Z,96.00
2022-09-06T11:43:19.170Z,95.50
2022-09-06T11:45:51.060Z,94.40
2022-09-06T11:48:48.155Z,94.30
2022-09-06T11:51:33.634Z,93.60
2022-09-06T11:54:22.061Z,92.50
2022-09-06T11:56:58.291Z,92.70
2022-09-06T11:59:44.235Z,92.20
2022-09-06T12:02:32.484Z,92.10
2022-09-06T12:05:22.152Z,90.80
2022-09-06T12:08:30.286Z,90.20
2022-09-06T12:11:05.169Z,89.80
2022-09-06T12:13:58.124Z,89.40
2022-09-06T12:16:46.751Z,88.60
2022-09-06T12:19:44.704Z,88.90
2022-09-06T12:22:58.870Z,87.70
2022-09-06T12:25:58.762Z,85.40
2022-09-06T12:28:43.133Z,82.30
2022-09-06T12:31:37.840Z,81.20
2022-09-06T12:34:14.959Z,77.70
2022-09-06T12:36:58.518Z,78.70
2022-09-06T12:39:27.228Z,78.20
2022-09-06T12:41:58.334Z,79.60
2022-09-06T12:44:32.571Z,79.10
2022-09-06T12:47:07.604Z,79.90
2022-09-06T12:49:36.371Z,78.50
2022-09-06T12:52:09.879Z,77.70
2022-09-06T12:54:49.340Z,77.20
2022-09-06T12:57:22.705Z,76.60
2022-09-06T12:59:53.835Z,77.70
2022-09-06T13:02:31.165Z,77.90
2022-09-06T13:05:06.253Z,76.90
2022-09-06T13:07:39.250Z,75.60
2022-09-06T13:10:08.885Z,75.40
2022-09-06T13:12:40.528Z,76.10
2022-09-06T13:15:12.842Z,77.10
2022-09-06T13:17:42.790Z,76.90
2022-09-06T13:20:13.622Z,76.40
2022-09-06T13:22:45.254Z,76.00
2022-09-06T13:25:24.760Z,74.80
2022-09-06T13:27:57.767Z,73.70
2022-09-06T13:30:35.983Z,73.30
2022-09-06T13:33:07.894Z,71.80
2022-09-06T13:35:39.133Z,71.10
2022-09-06T13:38:32.160Z,70.90
2022-09-06T13:41:16.882Z,70.10
2022-09-06T13:43:47.768Z,72.30
2022-09-06T13:46:16.495Z,71.80
2022-09-06T13:48:46.549Z,71.40
2022-09-06T13:51:15.207Z,71.30
2022-09-06T13:53:43.816Z,70.00
2022-09-06T13:56:12.371Z,69.60
2022-09-06T13:58:41.171Z,69.30
2022-09-06T14:01:11.273Z,69.00
2022-09-06T14:03:42.852Z,68.80
2022-09-06T14:06:12.805Z,68.80
2022-09-06T14:09:05.751Z,68.40
2022-09-06T14:11:30.037Z,67.90
2022-09-06T14:13:59.053Z,67.50
2022-09-06T14:16:27.707Z,66.60
2022-09-06T14:18:56.347Z,65.90
2022-09-06T14:21:26.435Z,65.50
2022-09-06T14:23:55.564Z,65.50
2022-09-06T14:26:24.449Z,64.30
2022-09-06T14:28:53.095Z,63.30
2022-09-06T14:31:23.266Z,62.90
2022-09-06T14:33:51.977Z,62.60
2022-09-06T14:36:23.050Z,61.90
2022-09-06T14:38:53.483Z,60.60
2022-09-06T14:41:24.925Z,60.00
2022-09-06T14:43:55.730Z,59.90
2022-09-06T14:46:26.081Z,59.70
2022-09-06T14:48:58.902Z,59.00
2022-09-06T14:51:27.984Z,58.50
2022-09-06T14:54:00.489Z,57.50
2022-09-06T14:56:29.990Z,57.40
2022-09-06T14:58:59.936Z,58.30
2022-09-06T15:01:33.039Z,57.90
2022-09-06T15:04:08.617Z,57.60
2022-09-06T15:06:40.054Z,58.00
2022-09-06T15:09:11.706Z,57.80
2022-09-06T15:11:42.955Z,57.30
2022-09-06T15:14:15.638Z,56.90
2022-09-06T15:16:44.604Z,56.30
2022-09-06T15:19:13.274Z,56.90
2022-09-06T15:21:42.253Z,57.30
2022-09-06T15:24:12.494Z,57.90
2022-09-06T15:26:42.141Z,57.80
2022-09-06T15:29:11.951Z,57.50
2022-09-06T15:31:41.926Z,57.00
2022-09-06T15:34:12.208Z,56.80
2022-09-06T15:36:40.766Z,57.50
2022-09-06T15:39:09.368Z,58.10
2022-09-06T15:41:40.594Z,57.80
2022-09-06T15:44:11.897Z,57.70
2022-09-06T15:46:46.368Z,58.10
2022-09-06T15:49:17.923Z,58.50
2022-09-06T15:51:46.785Z,59.20
2022-09-06T15:54:17.411Z,59.00
2022-09-06T15:56:46.404Z,59.10
2022-09-06T15:59:15.265Z,59.40
2022-09-06T16:01:43.917Z,60.10
2022-09-06T16:04:12.526Z,59.70
2022-09-06T16:06:43.068Z,59.70
2022-09-06T16:09:15.163Z,59.20
2022-09-06T16:11:43.781Z,59.20
2022-09-06T16:14:15.409Z,59.50
2022-09-06T16:16:44.897Z,60.40
2022-09-06T16:19:14.198Z,60.20
2022-09-06T16:21:44.004Z,60.40
2022-09-06T16:24:14.743Z,60.70
2022-09-06T16:26:46.227Z,61.30
2022-09-06T16:29:19.155Z,62.00
2022-09-06T16:31:48.207Z,62.50
2022-09-06T16:34:17.233Z,62.40
2022-09-06T16:36:45.834Z,62.20
2022-09-06T16:39:14.626Z,62.20
2022-09-06T16:41:44.923Z,62.40
2022-09-06T16:44:17.535Z,62.80
2022-09-06T16:46:47.461Z,63.40
2022-09-06T16:49:17.382Z,63.70
2022-09-06T16:51:46.806Z,64.00
2022-09-06T16:54:15.868Z,64.20
2022-09-06T16:56:45.122Z,65.10
2022-09-06T16:59:15.232Z,65.00
2022-09-06T17:01:45.704Z,65.60
2022-09-06T17:04:14.675Z,66.00
2022-09-06T17:06:45.884Z,66.50
2022-09-06T17:09:17.779Z,66.90
2022-09-06T17:11:47.695Z,67.40
2022-09-06T17:14:16.364Z,67.30
2022-09-06T17:17:03.780Z,67.50
2022-09-06T17:19:35.789Z,68.10
2022-09-06T17:22:04.572Z,68.40
2022-09-06T17:24:33.714Z,69.10
2022-09-06T17:27:02.435Z,69.50
2022-09-06T17:29:32.853Z,69.70
2022-09-06T17:32:04.730Z,70.10
2022-09-06T17:34:33.336Z,70.30
2022-09-06T17:37:01.967Z,70.80
2022-09-06T17:39:31.127Z,71.50
2022-09-06T17:42:02.364Z,71.80
2022-09-06T17:44:31.136Z,72.20
2022-09-06T17:47:12.590Z,72.60
2022-09-06T17:49:43.737Z,72.70
2022-09-06T17:52:13.727Z,72.90
2022-09-06T17:54:42.364Z,73.00
2022-09-06T17:57:11.032Z,73.10
2022-09-06T17:59:39.593Z,73.50
2022-09-06T18:02:08.987Z,73.90
2022-09-06T18:04:38.137Z,74.50
2022-09-06T18:07:08.571Z,74.60
2022-09-06T18:09:37.796Z,74.80
2022-09-06T18:12:06.919Z,75.00
2022-09-06T18:14:35.847Z,75.30
2022-09-06T18:17:04.993Z,75.60
2022-09-06T18:19:33.678Z,76.10
2022-09-06T18:22:02.277Z,77.20
2022-09-06T18:24:32.227Z,76.40
2022-09-06T18:27:03.186Z,76.50
2022-09-06T18:29:32.312Z,76.80
2022-09-06T18:32:00.914Z,77.20
2022-09-06T18:34:29.590Z,77.50
2022-09-06T18:36:58.804Z,77.60
2022-09-06T18:39:27.748Z,77.70
2022-09-06T18:42:10.567Z,77.90
2022-09-06T18:44:39.446Z,78.10
2022-09-06T18:47:10.133Z,78.50
2022-09-06T18:49:43.784Z,78.80
2022-09-06T18:52:13.134Z,79.20
2022-09-06T18:54:43.610Z,80.70
2022-09-06T18:57:14.818Z,80.40
2022-09-06T18:59:43.644Z,80.80
2022-09-06T19:02:12.327Z,81.20
2022-09-06T19:04:40.989Z,81.80
2022-09-06T19:07:09.555Z,82.30
2022-09-06T19:09:38.303Z,82.70
2022-09-06T19:12:07.328Z,82.90
2022-09-06T19:14:37.246Z,83.30
2022-09-06T19:17:05.927Z,83.40
2022-09-06T19:19:34.522Z,83.90
2022-09-06T19:22:03.212Z,84.50
2022-09-06T19:24:32.196Z,85.20
2022-09-06T19:27:00.837Z,85.70
2022-09-06T19:29:29.418Z,86.30
2022-09-06T19:32:00.443Z,87.20
2022-09-06T19:34:29.268Z,87.70
2022-09-06T19:36:57.937Z,88.90
2022-09-06T19:39:34.820Z,89.80
2022-09-06T19:42:06.067Z,90.10
2022-09-06T19:44:34.743Z,90.80
2022-09-06T19:47:04.873Z,90.90
2022-09-06T19:49:33.513Z,91.20
2022-09-06T19:52:04.517Z,91.70
2022-09-06T19:54:33.091Z,92.60
2022-09-06T19:57:01.726Z,92.70
2022-09-06T19:59:30.379Z,93.30
2022-09-06T20:01:59.281Z,93.80
2022-09-06T20:04:29.528Z,94.70
2022-09-06T20:06:58.091Z,95.00
2022-09-06T20:09:26.724Z,95.70
2022-09-06T20:11:55.314Z,96.50
2022-09-06T20:14:24.816Z,97.20
2022-09-06T20:16:53.613Z,98.00
2022-09-06T20:19:22.266Z,98.60
2022-09-06T20:21:52.199Z,99.30
2022-09-06T20:24:20.890Z,99.90
2022-09-06T20:26:49.473Z,99.90
2022-09-06T20:29:18.174Z,99.90
2022-09-06T20:31:46.849Z,99.90
2022-09-06T20:34:18.397Z,99.90
2022-09-06T20:36:47.353Z,99.90
2022-09-06T20:39:17.695Z,99.90
2022-09-06T20:41:46.248Z,99.90
2022-09-06T20:44:15.039Z,99.90
2022-09-06T20:46:43.665Z,99.90
2022-09-06T20:49:12.670Z,99.90
2022-09-06T20:51:43.239Z,99.90
2022-09-06T20:54:14.006Z,99.90
2022-09-06T20:56:44.244Z,99.90
2022-09-06T20:59:14.232Z,99.90
2022-09-06T21:01:44.930Z,99.90
2022-09-06T21:04:16.162Z,99.90
2022-09-06T21:06:45.911Z,99.90
2022-09-06T21:09:16.129Z,99.90
2022-09-06T21:11:46.487Z,99.90
2022-09-06T21:14:15.500Z,99.90
2022-09-06T21:16:44.180Z,99.90
2022-09-06T21:19:14.046Z,99.90
2022-09-06T21:21:43.068Z,99.90
2022-09-06T21:24:12.360Z,99.90
2022-09-06T21:26:42.973Z,99.90
2022-09-06T21:29:13.827Z,99.90
2022-09-06T21:31:42.460Z,99.90
2022-09-06T21:34:17.007Z,99.90
2022-09-06T21:36:46.487Z,99.90
2022-09-06T21:39:16.237Z,99.90
2022-09-06T21:41:45.790Z,99.90
2022-09-06T21:44:15.797Z,99.90
2022-09-06T21:46:44.535Z,99.90
2022-09-06T21:49:14.792Z,99.90
2022-09-06T21:51:43.626Z,99.90
2022-09-06T21:54:12.269Z,99.90
2022-09-06T21:56:41.385Z,99.90
2022-09-06T21:59:10.953Z,99.90
2022-09-06T22:01:44.030Z,99.90
2022-09-06T22:04:14.636Z,99.90
2022-09-06T22:06:43.226Z,99.90
2022-09-06T22:09:13.201Z,99.90
2022-09-06T22:11:43.692Z,99.90
2022-09-06T22:14:14.591Z,99.90
2022-09-06T22:16:45.061Z,99.90
2022-09-06T22:19:14.090Z,99.90
2022-09-06T22:21:42.676Z,99.90
2022-09-06T22:24:13.064Z,99.90
2022-09-06T22:26:42.942Z,99.90
2022-09-06T22:29:13.572Z,99.90
2022-09-06T22:31:42.836Z,99.90
2022-09-06T22:34:13.410Z,99.90
2022-09-06T22:36:42.454Z,99.90
2022-09-06T22:39:11.235Z,99.90
2022-09-06T22:41:40.236Z,99.90
2022-09-06T22:44:08.930Z,99.90
2022-09-06T22:46:38.309Z,99.90
2022-09-06T22:49:07.132Z,99.90
2022-09-06T22:51:37.141Z,99.90
2022-09-06T22:54:06.087Z,99.90
2022-09-06T22:56:35.758Z,99.90
2022-09-06T22:59:05.022Z,99.90
2022-09-06T23:01:38.785Z,99.90
2022-09-06T23:04:08.293Z,99.90
2022-09-06T23:06:38.651Z,99.90
2022-09-06T23:09:07.381Z,99.90
2022-09-06T23:11:36.187Z,99.90
2022-09-06T23:14:05.174Z,99.90
2022-09-06T23:16:34.155Z,99.90
2022-09-06T23:19:02.874Z,99.90
2022-09-06T23:21:31.543Z,99.90
2022-09-06T23:24:01.611Z,99.90
2022-09-06T23:26:32.039Z,99.90
2022-09-06T23:29:01.530Z,99.90
2022-09-06T23:31:32.626Z,99.90
2022-09-06T23:34:02.723Z,99.90
2022-09-06T23:36:32.448Z,99.90
2022-09-06T23:39:02.809Z,99.90
2022-09-06T23:41:32.134Z,99.90
2022-09-06T23:44:01.634Z,99.90
2022-09-06T23:46:30.984Z,99.90
2022-09-06T23:49:01.396Z,99.90
2022-09-06T23:51:29.967Z,99.90
2022-09-06T23:53:59.741Z,99.90
2022-09-06T23:56:29.907Z,99.90
2022-09-06T23:58:58.829Z,99.90
